Dickinson Theodore Roosevelt Regional Airport
KDIK : now visible

Airfield :











YOU CAN JOIN US ON...

 
LOGIN :

Register | Disclaimer

   EN    FR    IT 

 









Legend :    VFR   Marginal VFR   IFR   Intensive IFR   Very Intensive IFR
Visi :
Ceiling :
>= 8 km
>= 3000ft
5 to 8 km
1000 to 3000 ft
1500m to 5 km
500 to 1000 ft
800 to 1500m
200 to 500 ft
< 800m
< 200 ft
Symbols :   Thunderstorms  Fog  Heavy snow  Heavy precipitations  Wind > 20 kt






- Airport Elevation : 2592 ft


KDIK - Dickinson Theodore Roosevelt Regional

CURRENT METAR :
  • 250756Z AUTO 18012KT 10SM BKN110 M03/M04 A2981 RMK AO2 SLP123 T10281044

EXPIRED METARs :
  • 250656Z AUTO 17013KT 10SM OVC065 M02/M04 A2983 RMK AO2 SLP131 T10221039 410111067
  • 250556Z AUTO 16007KT 10SM OVC070 M02/M04 A2985 RMK AO2 SLP139 I6001 T10221039 11022 21033 55005

TAF KDIK
Valid from the 25 at 06:00 until the 26 at 06:00 UTC


250521Z 2506/2606 16010KT P6SM BKN060 OVC090
FM251000 23008KT P6SM BKN090
FM251400 27011KT P6SM OVC080
FM251900 27012G20KT P6SM FEW200



MET'MAP, your aeronautical weather chart ! - Copyright ORBIFLY December 2007 - Disclaimer

ORBIFLY MET'MAP TEAM :

Programming & Development : Alexandra Zaïnal
Concept & original design : Baudouin d'Aumeries
Assistance for programming : Marc-Olivier Méhu
Technical & hardware support : Manuel Goepfert

Contact : metmap@orbifly.com




SOURCES & CREDITS :

   NOAA       Earth
Advisory